Time;durP1;ratioP1;P1;durP2;ratioP2;P2;SDS_P1;SDS_P2;PMS_P1;PMS_P2;Temp;Humidity;BMP_temperature;BMP_pressure;BME280_temperature;BME280_humidity;BME280_pressure;Samples;Min_cycle;Max_cycle;Signal;HPM_P1;HPM_P2
2023/03/10 00:02:26;;;;;;;0.13;0.13;;;;;;;;;;4996295;28;20298;-72
2023/03/10 00:04:52;;;;;;;0.10;0.10;;;;;;;;;;5007272;28;20243;-71
2023/03/10 00:07:19;;;;;;;0.93;0.93;;;;;;;;;;4996160;28;20472;-71
2023/03/10 00:09:45;;;;;;;0.20;0.20;;;;;;;;;;5007375;28;20240;-71
2023/03/10 00:12:13;;;;;;;0.23;0.23;;;;;;;;;;4995922;28;20256;-72
2023/03/10 00:14:40;;;;;;;0.10;0.10;;;;;;;;;;5007022;28;20286;-71
2023/03/10 00:17:06;;;;;;;0.10;0.10;;;;;;;;;;4995982;28;20312;-72
2023/03/10 00:19:33;;;;;;;0.20;0.20;;;;;;;;;;5006905;28;20462;-71
2023/03/10 00:21:59;;;;;;;0.20;0.20;;;;;;;;;;4995862;28;20245;-71
2023/03/10 00:24:25;;;;;;;0.23;0.23;;;;;;;;;;5006891;28;20237;-72
2023/03/10 00:26:52;;;;;;;0.20;0.20;;;;;;;;;;4995815;28;20254;-72
2023/03/10 00:29:20;;;;;;;0.20;0.20;;;;;;;;;;5006749;28;20293;-71
2023/03/10 00:31:47;;;;;;;0.20;0.20;;;;;;;;;;4995858;28;20279;-72
2023/03/10 00:34:13;;;;;;;0.10;0.10;;;;;;;;;;5005074;28;20217;-72
2023/03/10 00:36:40;;;;;;;0.10;0.10;;;;;;;;;;4995819;28;20326;-72
2023/03/10 00:39:07;;;;;;;0.20;0.20;;;;;;;;;;5006439;28;20373;-71
2023/03/10 00:41:35;;;;;;;0.10;0.10;;;;;;;;;;4995952;28;20489;-71
2023/03/10 00:44:02;;;;;;;0.17;0.17;;;;;;;;;;5006245;28;20273;-72
2023/03/10 00:46:31;;;;;;;0.10;0.10;;;;;;;;;;4995821;28;20315;-71
2023/03/10 00:48:58;;;;;;;0.10;0.10;;;;;;;;;;5006043;28;20423;-71
2023/03/10 00:51:26;;;;;;;0.10;0.10;;;;;;;;;;4995728;28;20259;-71
2023/03/10 00:53:52;;;;;;;0.20;0.20;;;;;;;;;;5006085;28;20403;-71
2023/03/10 00:56:20;;;;;;;0.20;0.20;;;;;;;;;;4995483;28;20306;-71
2023/03/10 00:58:47;;;;;;;0.10;0.10;;;;;;;;;;5005753;28;20239;-72
2023/03/10 01:01:14;;;;;;;0.13;0.13;;;;;;;;;;4995574;28;20246;-71
2023/03/10 01:03:42;;;;;;;0.10;0.10;;;;;;;;;;5005623;28;20283;-72
2023/03/10 01:06:09;;;;;;;0.10;0.10;;;;;;;;;;4995765;28;20306;-71
2023/03/10 01:08:35;;;;;;;0.10;0.10;;;;;;;;;;5005387;28;20301;-71
2023/03/10 01:11:02;;;;;;;0.10;0.10;;;;;;;;;;4995756;28;20243;-71
2023/03/10 01:13:28;;;;;;;0.10;0.10;;;;;;;;;;5005217;28;20205;-71
2023/03/10 01:15:55;;;;;;;0.20;0.20;;;;;;;;;;4995687;28;20501;-72
2023/03/10 01:18:21;;;;;;;0.10;0.10;;;;;;;;;;5005371;28;20202;-71
2023/03/10 01:20:49;;;;;;;0.10;0.10;;;;;;;;;;4995771;28;20317;-72
2023/03/10 01:23:16;;;;;;;0.20;0.20;;;;;;;;;;5005213;28;20213;-71
2023/03/10 01:25:43;;;;;;;0.10;0.10;;;;;;;;;;4995529;28;20300;-70
2023/03/10 01:28:09;;;;;;;0.53;0.53;;;;;;;;;;5004723;28;20231;-70
2023/03/10 01:30:36;;;;;;;0.20;0.20;;;;;;;;;;4995569;28;20307;-71
2023/03/10 01:33:02;;;;;;;0.10;0.10;;;;;;;;;;5004976;28;20248;-71
2023/03/10 01:35:29;;;;;;;0.20;0.20;;;;;;;;;;4995760;28;20259;-71
2023/03/10 01:37:57;;;;;;;0.20;0.20;;;;;;;;;;5004694;28;20236;-71
2023/03/10 01:40:25;;;;;;;0.20;0.20;;;;;;;;;;4995626;28;20208;-71
2023/03/10 01:42:51;;;;;;;0.13;0.13;;;;;;;;;;5004766;28;20261;-71
2023/03/10 01:45:36;;;;;;;0.10;0.10;;;;;;;;;;4995270;28;20277;-70
2023/03/10 01:48:02;;;;;;;0.10;0.10;;;;;;;;;;5004502;28;20227;-70
2023/03/10 01:50:29;;;;;;;0.10;0.10;;;;;;;;;;4995192;28;20272;-70
2023/03/10 01:52:57;;;;;;;0.10;0.10;;;;;;;;;;5004487;28;20504;-71
2023/03/10 01:55:24;;;;;;;0.10;0.10;;;;;;;;;;4994966;28;20239;-71
2023/03/10 01:57:52;;;;;;;0.10;0.10;;;;;;;;;;5003944;28;20271;-70
2023/03/10 02:00:19;;;;;;;0.10;0.10;;;;;;;;;;4995173;28;20241;-70
2023/03/10 02:02:49;;;;;;;0.20;0.20;;;;;;;;;;5004310;28;20426;-71
2023/03/10 02:05:15;;;;;;;0.50;0.50;;;;;;;;;;4995105;28;20212;-70
2023/03/10 02:07:42;;;;;;;0.10;0.10;;;;;;;;;;5004107;28;20419;-70
2023/03/10 02:10:12;;;;;;;0.10;0.10;;;;;;;;;;4995167;28;20210;-69
2023/03/10 02:12:38;;;;;;;0.13;0.13;;;;;;;;;;5003741;28;20264;-70
2023/03/10 02:15:06;;;;;;;0.10;0.10;;;;;;;;;;5004557;28;20274;-71
2023/03/10 02:17:34;;;;;;;0.10;0.10;;;;;;;;;;4993657;28;20230;-70
2023/03/10 02:20:16;;;;;;;0.10;0.10;;;;;;;;;;5004917;28;20276;-70
2023/03/10 02:22:42;;;;;;;0.10;0.10;;;;;;;;;;5004607;28;20536;-70
2023/03/10 02:25:15;;;;;;;0.20;0.20;;;;;;;;;;4994796;28;20208;-70
2023/03/10 02:27:42;;;;;;;0.10;0.10;;;;;;;;;;5003502;28;20235;-70
2023/03/10 02:30:11;;;;;;;0.10;0.10;;;;;;;;;;4994865;28;20217;-70
2023/03/10 02:32:39;;;;;;;0.10;0.10;;;;;;;;;;5003398;28;20263;-70
2023/03/10 02:35:06;;;;;;;0.10;0.10;;;;;;;;;;5004769;28;20244;-70
2023/03/10 02:37:33;;;;;;;0.10;0.10;;;;;;;;;;4977263;28;20231;-70
2023/03/10 02:40:00;;;;;;;0.10;0.10;;;;;;;;;;5004354;28;20242;-69
2023/03/10 02:42:28;;;;;;;0.10;0.10;;;;;;;;;;4993382;28;20306;-71
2023/03/10 02:44:57;;;;;;;0.10;0.10;;;;;;;;;;5004560;28;20208;-70
2023/03/10 02:47:23;;;;;;;0.10;0.10;;;;;;;;;;4993331;28;20323;-71
2023/03/10 02:49:49;;;;;;;0.20;0.20;;;;;;;;;;5004195;28;20231;-70
2023/03/10 02:52:21;;;;;;;0.10;0.10;;;;;;;;;;4993215;28;20309;-70
2023/03/10 02:54:47;;;;;;;0.10;0.10;;;;;;;;;;5004046;28;20208;-70
2023/03/10 02:57:14;;;;;;;0.10;0.10;;;;;;;;;;4992559;28;20516;-70
2023/03/10 02:59:40;;;;;;;0.10;0.10;;;;;;;;;;5004381;28;20205;-70
2023/03/10 03:02:08;;;;;;;0.47;0.47;;;;;;;;;;4993123;28;20251;-70
2023/03/10 03:04:34;;;;;;;0.10;0.10;;;;;;;;;;5003907;28;20244;-70
2023/03/10 03:07:01;;;;;;;0.10;0.10;;;;;;;;;;4993217;28;20265;-70
2023/03/10 03:09:27;;;;;;;0.10;0.10;;;;;;;;;;5004082;28;20240;-70
2023/03/10 03:11:54;;;;;;;0.10;0.10;;;;;;;;;;4993022;28;20244;-70
2023/03/10 03:14:20;;;;;;;0.13;0.13;;;;;;;;;;5003771;28;20237;-71
2023/03/10 03:16:46;;;;;;;0.10;0.10;;;;;;;;;;4993188;28;20243;-71
2023/03/10 03:19:15;;;;;;;0.10;0.10;;;;;;;;;;5003912;28;20244;-70
2023/03/10 03:21:41;;;;;;;0.20;0.20;;;;;;;;;;4993183;28;20262;-71
2023/03/10 03:24:08;;;;;;;0.10;0.10;;;;;;;;;;5003840;28;20249;-70
2023/03/10 03:26:34;;;;;;;0.10;0.10;;;;;;;;;;4993306;28;20306;-70
2023/03/10 03:29:00;;;;;;;0.13;0.13;;;;;;;;;;5003496;28;20452;-71
2023/03/10 03:31:27;;;;;;;0.13;0.13;;;;;;;;;;4993167;28;20304;-70
2023/03/10 03:33:53;;;;;;;0.10;0.10;;;;;;;;;;5003285;28;20284;-70
2023/03/10 03:36:21;;;;;;;0.20;0.20;;;;;;;;;;4993257;28;20245;-70
2023/03/10 03:38:47;;;;;;;0.10;0.10;;;;;;;;;;5003620;28;20450;-70
2023/03/10 03:41:13;;;;;;;0.10;0.10;;;;;;;;;;4993460;28;20262;-70
2023/03/10 03:43:40;;;;;;;0.10;0.10;;;;;;;;;;5003503;28;20209;-70
2023/03/10 03:46:06;;;;;;;0.10;0.10;;;;;;;;;;4993468;28;20243;-71
2023/03/10 03:48:33;;;;;;;0.10;0.10;;;;;;;;;;5003296;28;20233;-70
2023/03/10 03:51:00;;;;;;;0.10;0.10;;;;;;;;;;4993540;28;20500;-70
2023/03/10 03:53:27;;;;;;;0.10;0.10;;;;;;;;;;5003327;28;20396;-70
2023/03/10 03:55:54;;;;;;;0.10;0.10;;;;;;;;;;4993200;28;20251;-70
2023/03/10 03:58:20;;;;;;;0.63;0.63;;;;;;;;;;5002895;28;20274;-70
2023/03/10 04:00:47;;;;;;;0.10;0.10;;;;;;;;;;4993604;28;20303;-71
2023/03/10 04:03:13;;;;;;;0.10;0.10;;;;;;;;;;5002730;28;20275;-70
2023/03/10 04:05:39;;;;;;;0.10;0.10;;;;;;;;;;4993560;28;20430;-71
2023/03/10 04:08:06;;;;;;;0.10;0.10;;;;;;;;;;5003321;28;20459;-70
2023/03/10 04:10:34;;;;;;;0.10;0.10;;;;;;;;;;4997118;28;20271;-70
2023/03/10 04:13:00;;;;;;;0.10;0.10;;;;;;;;;;5006204;28;20273;-70
2023/03/10 04:15:27;;;;;;;0.10;0.10;;;;;;;;;;4997237;28;20280;-70
2023/03/10 04:17:53;;;;;;;0.10;0.10;;;;;;;;;;5006375;28;20268;-70
2023/03/10 04:20:20;;;;;;;0.10;0.10;;;;;;;;;;4997028;28;20204;-70
2023/03/10 04:22:46;;;;;;;0.10;0.10;;;;;;;;;;5005890;28;20200;-71
2023/03/10 04:25:12;;;;;;;0.10;0.10;;;;;;;;;;4997084;28;20244;-70
2023/03/10 04:27:40;;;;;;;0.10;0.10;;;;;;;;;;5006035;28;20228;-71
2023/03/10 04:30:07;;;;;;;0.10;0.10;;;;;;;;;;5006678;28;20307;-70
2023/03/10 04:32:33;;;;;;;0.10;0.10;;;;;;;;;;4979360;28;20441;-70
2023/03/10 04:35:00;;;;;;;0.10;0.10;;;;;;;;;;5006904;28;20318;-70
2023/03/10 04:37:26;;;;;;;0.10;0.10;;;;;;;;;;4995635;28;20256;-70
2023/03/10 04:39:53;;;;;;;0.10;0.10;;;;;;;;;;5006799;28;20211;-70
2023/03/10 04:42:19;;;;;;;0.10;0.10;;;;;;;;;;4995622;28;20244;-70
2023/03/10 04:44:47;;;;;;;0.10;0.10;;;;;;;;;;5006230;28;20274;-70
2023/03/10 04:47:14;;;;;;;0.10;0.10;;;;;;;;;;4995458;28;20258;-71
2023/03/10 04:49:40;;;;;;;0.10;0.10;;;;;;;;;;5006341;28;20300;-70
2023/03/10 04:52:07;;;;;;;0.10;0.10;;;;;;;;;;4995369;28;20489;-70
2023/03/10 04:54:33;;;;;;;0.10;0.10;;;;;;;;;;5006418;28;20284;-71
2023/03/10 04:56:59;;;;;;;0.10;0.10;;;;;;;;;;4995071;28;20240;-70
2023/03/10 04:59:26;;;;;;;0.10;0.10;;;;;;;;;;5006214;28;20397;-70
2023/03/10 05:01:54;;;;;;;0.10;0.10;;;;;;;;;;4995107;28;20307;-70
2023/03/10 05:04:21;;;;;;;0.10;0.10;;;;;;;;;;5006040;28;20212;-71
2023/03/10 05:06:49;;;;;;;0.10;0.10;;;;;;;;;;4995199;28;20247;-70
2023/03/10 05:09:16;;;;;;;0.10;0.10;;;;;;;;;;5005773;28;20592;-70
2023/03/10 05:11:42;;;;;;;0.10;0.10;;;;;;;;;;4995138;28;20247;-71
2023/03/10 05:14:10;;;;;;;0.67;0.67;;;;;;;;;;5005625;28;20237;-70
2023/03/10 05:16:36;;;;;;;0.20;0.20;;;;;;;;;;4995219;28;20308;-71
2023/03/10 05:19:04;;;;;;;0.30;0.30;;;;;;;;;;5005328;28;20238;-70
2023/03/10 05:21:30;;;;;;;0.10;0.10;;;;;;;;;;4994475;28;20461;-70
2023/03/10 05:23:57;;;;;;;0.10;0.10;;;;;;;;;;5005149;28;20210;-70
2023/03/10 05:26:23;;;;;;;0.33;0.33;;;;;;;;;;4995023;28;20267;-70
2023/03/10 05:28:50;;;;;;;0.10;0.10;;;;;;;;;;5005050;28;20254;-70
2023/03/10 05:31:16;;;;;;;0.10;0.10;;;;;;;;;;4995211;28;20308;-70
2023/03/10 05:33:43;;;;;;;0.37;0.37;;;;;;;;;;5005271;28;20398;-71
2023/03/10 05:36:11;;;;;;;0.13;0.13;;;;;;;;;;4994959;28;20308;-70
2023/03/10 05:38:38;;;;;;;0.20;0.20;;;;;;;;;;5005205;28;20404;-71
2023/03/10 05:41:06;;;;;;;0.40;0.40;;;;;;;;;;4995066;28;20253;-70
2023/03/10 05:43:32;;;;;;;0.10;0.10;;;;;;;;;;5005032;28;20248;-70
2023/03/10 05:45:59;;;;;;;0.10;0.10;;;;;;;;;;4995009;28;20255;-70
2023/03/10 05:48:26;;;;;;;0.10;0.10;;;;;;;;;;5004938;28;20436;-71
2023/03/10 05:50:59;;;;;;;0.10;0.10;;;;;;;;;;4995029;28;20305;-70
2023/03/10 05:53:27;;;;;;;0.10;0.10;;;;;;;;;;5004791;28;20232;-70
2023/03/10 05:55:53;;;;;;;0.10;0.10;;;;;;;;;;4994614;28;20451;-70
2023/03/10 05:58:20;;;;;;;0.10;0.10;;;;;;;;;;5004253;28;20467;-70
2023/03/10 06:00:46;;;;;;;0.13;0.13;;;;;;;;;;4994971;28;20242;-70
2023/03/10 06:03:13;;;;;;;0.10;0.10;;;;;;;;;;5004133;28;20292;-70
2023/03/10 06:05:39;;;;;;;0.10;0.10;;;;;;;;;;4995058;28;20265;-70
2023/03/10 06:08:05;;;;;;;0.10;0.10;;;;;;;;;;5004285;28;20248;-70
2023/03/10 06:10:33;;;;;;;0.30;0.30;;;;;;;;;;4994817;28;20307;-70
2023/03/10 06:13:00;;;;;;;0.10;0.10;;;;;;;;;;5004190;28;20425;-71
2023/03/10 06:15:26;;;;;;;0.10;0.10;;;;;;;;;;4995062;28;20249;-71
2023/03/10 06:17:53;;;;;;;0.10;0.10;;;;;;;;;;5003723;28;20241;-72
2023/03/10 06:20:19;;;;;;;0.10;0.10;;;;;;;;;;4994900;28;20202;-71
2023/03/10 06:22:45;;;;;;;0.10;0.10;;;;;;;;;;5003989;28;20197;-71
2023/03/10 06:25:12;;;;;;;0.10;0.10;;;;;;;;;;4994766;28;20214;-71
2023/03/10 06:27:40;;;;;;;0.10;0.10;;;;;;;;;;5003486;28;20195;-71
2023/03/10 06:30:07;;;;;;;0.10;0.10;;;;;;;;;;5004551;28;20260;-71
2023/03/10 06:32:33;;;;;;;0.10;0.10;;;;;;;;;;4976192;28;20210;-71
2023/03/10 06:35:00;;;;;;;0.10;0.10;;;;;;;;;;5004584;28;20215;-71
2023/03/10 06:37:26;;;;;;;0.10;0.10;;;;;;;;;;4993507;28;20463;-71
2023/03/10 06:39:53;;;;;;;0.10;0.10;;;;;;;;;;5004630;28;20450;-72
2023/03/10 06:42:19;;;;;;;0.10;0.10;;;;;;;;;;4993374;28;20497;-72
2023/03/10 06:44:47;;;;;;;0.10;0.10;;;;;;;;;;5004607;28;20245;-74
2023/03/10 06:47:13;;;;;;;0.10;0.10;;;;;;;;;;4993323;28;20313;-72
2023/03/10 06:49:40;;;;;;;0.10;0.10;;;;;;;;;;5004208;28;20226;-71
2023/03/10 06:52:07;;;;;;;0.20;0.20;;;;;;;;;;4993223;28;20256;-71
2023/03/10 06:54:33;;;;;;;0.10;0.10;;;;;;;;;;5004440;28;20233;-71
2023/03/10 06:56:59;;;;;;;0.10;0.10;;;;;;;;;;4993055;28;20276;-71
2023/03/10 06:59:26;;;;;;;0.10;0.10;;;;;;;;;;5003920;28;20266;-72
2023/03/10 07:01:53;;;;;;;0.10;0.10;;;;;;;;;;4993232;28;20381;-71
2023/03/10 07:04:20;;;;;;;0.10;0.10;;;;;;;;;;5004187;28;20232;-71
2023/03/10 07:06:46;;;;;;;0.10;0.10;;;;;;;;;;4993316;28;20257;-71
2023/03/10 07:09:12;;;;;;;0.10;0.10;;;;;;;;;;5003678;28;20265;-71
2023/03/10 07:11:39;;;;;;;0.10;0.10;;;;;;;;;;4993602;28;20625;-71
2023/03/10 07:14:06;;;;;;;0.10;0.10;;;;;;;;;;5003836;28;20293;-71
2023/03/10 07:16:32;;;;;;;0.10;0.10;;;;;;;;;;4993321;28;20238;-72
2023/03/10 07:19:00;;;;;;;0.10;0.10;;;;;;;;;;5003520;28;20272;-71
2023/03/10 07:21:26;;;;;;;0.10;0.10;;;;;;;;;;4993476;28;20248;-71
2023/03/10 07:23:53;;;;;;;0.10;0.10;;;;;;;;;;5003416;28;20207;-71
2023/03/10 07:26:19;;;;;;;0.30;0.30;;;;;;;;;;4993341;28;20261;-71
2023/03/10 07:28:45;;;;;;;0.10;0.10;;;;;;;;;;5003399;28;20273;-72
2023/03/10 07:31:13;;;;;;;0.10;0.10;;;;;;;;;;4993443;28;20238;-72
2023/03/10 07:33:39;;;;;;;0.10;0.10;;;;;;;;;;5003310;28;20209;-72
2023/03/10 07:36:08;;;;;;;0.10;0.10;;;;;;;;;;4993580;28;20305;-69
2023/03/10 07:38:34;;;;;;;0.10;0.10;;;;;;;;;;5003217;28;20229;-69
2023/03/10 07:41:01;;;;;;;0.10;0.10;;;;;;;;;;4993237;28;20261;-70
2023/03/10 07:43:27;;;;;;;0.10;0.10;;;;;;;;;;5004284;28;20237;-70
2023/03/10 07:45:54;;;;;;;0.10;0.10;;;;;;;;;;4997413;28;20242;-69
2023/03/10 07:48:20;;;;;;;0.10;0.10;;;;;;;;;;5007158;28;20273;-69
2023/03/10 07:50:54;;;;;;;0.10;0.10;;;;;;;;;;4997354;28;20316;-69
2023/03/10 07:53:22;;;;;;;0.10;0.10;;;;;;;;;;5007055;28;20430;-69
2023/03/10 07:55:48;;;;;;;0.10;0.10;;;;;;;;;;4997173;28;20304;-69
2023/03/10 07:58:15;;;;;;;0.10;0.10;;;;;;;;;;5006830;28;20213;-69
2023/03/10 08:00:41;;;;;;;0.10;0.10;;;;;;;;;;4997398;28;20310;-69
2023/03/10 08:03:07;;;;;;;0.10;0.10;;;;;;;;;;5006707;28;20274;-69
2023/03/10 08:05:34;;;;;;;0.40;0.40;;;;;;;;;;4997364;28;20254;-68
2023/03/10 08:08:00;;;;;;;0.10;0.10;;;;;;;;;;5006576;28;20262;-68
2023/03/10 08:10:28;;;;;;;0.10;0.10;;;;;;;;;;4997394;28;20262;-71
2023/03/10 08:12:54;;;;;;;0.10;0.10;;;;;;;;;;5006073;28;20269;-71
2023/03/10 08:15:20;;;;;;;0.10;0.10;;;;;;;;;;4997227;28;20210;-70
2023/03/10 08:17:47;;;;;;;0.10;0.10;;;;;;;;;;5006341;28;20262;-71
2023/03/10 08:20:13;;;;;;;0.10;0.10;;;;;;;;;;4997211;28;20239;-70
2023/03/10 08:22:40;;;;;;;0.10;0.10;;;;;;;;;;5006187;28;20201;-72
2023/03/10 08:25:06;;;;;;;0.10;0.10;;;;;;;;;;5007091;28;20503;-71
2023/03/10 08:27:34;;;;;;;0.10;0.10;;;;;;;;;;4979537;28;20284;-71
2023/03/10 08:30:01;;;;;;;0.10;0.10;;;;;;;;;;5006936;28;20281;-71
2023/03/10 08:32:27;;;;;;;0.10;0.10;;;;;;;;;;4995806;28;20306;-72
2023/03/10 08:34:53;;;;;;;0.10;0.10;;;;;;;;;;5006745;28;20284;-71
2023/03/10 08:37:20;;;;;;;0.13;0.13;;;;;;;;;;4995691;28;20265;-71
2023/03/10 08:39:46;;;;;;;0.10;0.10;;;;;;;;;;5006879;28;20370;-71
2023/03/10 08:42:13;;;;;;;0.10;0.10;;;;;;;;;;4995617;28;20287;-72
2023/03/10 08:44:40;;;;;;;0.10;0.10;;;;;;;;;;5006566;28;20206;-72
2023/03/10 08:47:07;;;;;;;0.10;0.10;;;;;;;;;;4995481;28;20302;-69
2023/03/10 08:49:33;;;;;;;0.20;0.20;;;;;;;;;;5006602;28;20241;-70
2023/03/10 08:52:00;;;;;;;0.10;0.10;;;;;;;;;;4995399;28;20254;-69
2023/03/10 08:54:26;;;;;;;0.10;0.10;;;;;;;;;;5005798;28;20404;-70
2023/03/10 08:56:53;;;;;;;0.10;0.10;;;;;;;;;;4994725;28;20307;-70
2023/03/10 08:59:19;;;;;;;0.10;0.10;;;;;;;;;;5006133;28;20393;-70
2023/03/10 09:01:47;;;;;;;0.10;0.10;;;;;;;;;;4995401;28;20307;-70
2023/03/10 09:04:14;;;;;;;0.10;0.10;;;;;;;;;;5005813;28;20250;-70
2023/03/10 09:06:40;;;;;;;0.10;0.10;;;;;;;;;;4995446;28;20264;-70
2023/03/10 09:09:07;;;;;;;0.10;0.10;;;;;;;;;;5005910;28;20519;-70
2023/03/10 09:11:35;;;;;;;0.05;0.05;;;;;;;;;;4995410;28;20457;-70
2023/03/10 09:14:02;;;;;;;0.10;0.10;;;;;;;;;;5005517;28;20234;-70
2023/03/10 09:16:29;;;;;;;0.10;0.10;;;;;;;;;;4995421;28;20305;-70
2023/03/10 09:18:57;;;;;;;0.10;0.10;;;;;;;;;;5005583;28;20247;-70
2023/03/10 09:21:24;;;;;;;0.10;0.10;;;;;;;;;;4995471;28;20238;-70
2023/03/10 09:23:52;;;;;;;0.10;0.10;;;;;;;;;;5005582;28;20206;-70
2023/03/10 09:26:19;;;;;;;0.10;0.10;;;;;;;;;;4995258;28;20316;-70
2023/03/10 09:28:48;;;;;;;0.10;0.10;;;;;;;;;;5005192;28;20245;-70
2023/03/10 09:31:16;;;;;;;0.10;0.10;;;;;;;;;;4995301;28;20592;-69
2023/03/10 09:33:42;;;;;;;0.00;0.00;;;;;;;;;;5005312;28;20455;-70
2023/03/10 09:36:10;;;;;;;0.10;0.10;;;;;;;;;;4994980;28;20380;-70
2023/03/10 09:38:37;;;;;;;0.10;0.10;;;;;;;;;;5004923;28;20213;-70
2023/03/10 09:41:08;;;;;;;0.10;0.10;;;;;;;;;;4995327;28;20440;-70
2023/03/10 09:43:37;;;;;;;0.00;0.00;;;;;;;;;;5004860;28;20226;-71
2023/03/10 09:46:07;;;;;;;0.10;0.10;;;;;;;;;;4995143;28;20308;-70
2023/03/10 09:48:42;;;;;;;0.10;0.10;;;;;;;;;;5005131;28;20225;-71
2023/03/10 09:51:15;;;;;;;0.00;0.00;;;;;;;;;;4994899;28;20245;-71
2023/03/10 09:53:54;;;;;;;0.10;0.10;;;;;;;;;;5004712;28;20208;-71
2023/03/10 09:56:22;;;;;;;0.10;0.10;;;;;;;;;;4994565;28;20503;-71
2023/03/10 09:58:50;;;;;;;0.00;0.00;;;;;;;;;;5004709;28;20208;-70
2023/03/10 10:01:18;;;;;;;0.10;0.10;;;;;;;;;;4994716;28;20312;-71
2023/03/10 10:03:46;;;;;;;0.10;0.10;;;;;;;;;;5004523;28;20210;-70
2023/03/10 10:06:17;;;;;;;0.10;0.10;;;;;;;;;;4994426;28;20271;-70
2023/03/10 10:08:46;;;;;;;0.10;0.10;;;;;;;;;;5004445;28;20242;-70
2023/03/10 10:11:13;;;;;;;0.08;0.08;;;;;;;;;;4994482;28;20541;-70
2023/03/10 10:13:39;;;;;;;0.08;0.08;;;;;;;;;;5004596;28;20434;-70
2023/03/10 10:16:08;;;;;;;0.10;0.10;;;;;;;;;;4994612;28;20466;-70
2023/03/10 10:18:38;;;;;;;0.32;0.32;;;;;;;;;;5004440;28;20276;-70
2023/03/10 10:21:09;;;;;;;0.10;0.10;;;;;;;;;;4994524;28;20348;-70
2023/03/10 10:23:40;;;;;;;0.10;0.10;;;;;;;;;;5004402;28;20469;-71
2023/03/10 10:26:10;;;;;;;0.10;0.10;;;;;;;;;;4994476;28;20502;-69
2023/03/10 10:28:40;;;;;;;0.10;0.10;;;;;;;;;;5003951;28;20273;-69
2023/03/10 10:31:11;;;;;;;0.00;0.00;;;;;;;;;;4994216;28;20238;-70
2023/03/10 10:33:52;;;;;;;0.17;0.17;;;;;;;;;;5003882;28;20276;-70
2023/03/10 10:36:19;;;;;;;0.10;0.10;;;;;;;;;;4993947;28;20252;-70
2023/03/10 10:38:50;;;;;;;0.00;0.00;;;;;;;;;;5003890;28;20277;-70
2023/03/10 10:41:16;;;;;;;0.10;0.10;;;;;;;;;;4994013;28;20247;-71
2023/03/10 10:43:44;;;;;;;3.13;2.83;;;;;;;;;;5003766;28;20278;-71
2023/03/10 10:46:12;;;;;;;0.10;0.10;;;;;;;;;;4993962;28;20308;-70
2023/03/10 10:48:40;;;;;;;0.00;0.00;;;;;;;;;;5003735;28;20209;-70
2023/03/10 10:51:18;;;;;;;0.03;0.03;;;;;;;;;;4993640;28;20288;-70
2023/03/10 10:53:45;;;;;;;0.05;0.05;;;;;;;;;;5003718;28;20221;-71
2023/03/10 10:56:14;;;;;;;0.00;0.00;;;;;;;;;;4993647;28;20264;-71
2023/03/10 10:58:41;;;;;;;0.10;0.10;;;;;;;;;;5003587;28;20233;-70
2023/03/10 11:01:11;;;;;;;0.00;0.00;;;;;;;;;;4993740;28;20258;-70
2023/03/10 11:03:39;;;;;;;0.00;0.00;;;;;;;;;;5003539;28;20237;-70
2023/03/10 11:06:13;;;;;;;0.00;0.00;;;;;;;;;;4993824;28;20309;-71
2023/03/10 11:08:41;;;;;;;0.00;0.00;;;;;;;;;;5003771;28;20241;-70
2023/03/10 11:11:16;;;;;;;0.00;0.00;;;;;;;;;;4993671;28;20557;-70
2023/03/10 11:13:51;;;;;;;0.00;0.00;;;;;;;;;;5003819;28;20417;-70
2023/03/10 11:16:21;;;;;;;0.00;0.00;;;;;;;;;;4993657;28;20238;-70
2023/03/10 11:18:51;;;;;;;0.10;0.10;;;;;;;;;;5005386;28;20383;-70
2023/03/10 11:21:22;;;;;;;0.05;0.05;;;;;;;;;;4997646;28;20477;-70
2023/03/10 11:23:54;;;;;;;0.08;0.08;;;;;;;;;;5007823;28;20221;-70
2023/03/10 11:26:34;;;;;;;0.00;0.00;;;;;;;;;;4997516;28;20261;-70
2023/03/10 11:29:05;;;;;;;0.00;0.00;;;;;;;;;;5007541;28;20226;-71
2023/03/10 11:31:37;;;;;;;0.00;0.00;;;;;;;;;;4996811;28;20549;-70
2023/03/10 11:34:11;;;;;;;0.10;0.10;;;;;;;;;;5007709;28;20241;-70
2023/03/10 11:36:41;;;;;;;0.00;0.00;;;;;;;;;;4997042;28;20312;-70
2023/03/10 11:39:13;;;;;;;0.00;0.00;;;;;;;;;;5007661;28;20213;-70
2023/03/10 11:41:44;;;;;;;0.08;0.08;;;;;;;;;;4996972;28;20254;-71
2023/03/10 11:44:15;;;;;;;0.00;0.00;;;;;;;;;;5007412;28;20205;-70
2023/03/10 11:46:43;;;;;;;0.10;0.10;;;;;;;;;;4996789;28;20292;-70
2023/03/10 11:49:11;;;;;;;0.10;0.10;;;;;;;;;;5007238;28;20206;-70
2023/03/10 11:51:38;;;;;;;0.00;0.00;;;;;;;;;;4996823;28;20240;-71
2023/03/10 11:54:10;;;;;;;0.10;0.10;;;;;;;;;;5007366;28;20397;-71
2023/03/10 11:56:37;;;;;;;0.10;0.10;;;;;;;;;;4996580;28;20258;-71
2023/03/10 11:59:09;;;;;;;0.10;0.10;;;;;;;;;;5007219;28;20395;-72
2023/03/10 12:01:38;;;;;;;0.10;0.10;;;;;;;;;;4996747;28;20237;-71
2023/03/10 12:04:09;;;;;;;1.55;1.45;;;;;;;;;;5006784;28;20213;-71
2023/03/10 12:06:38;;;;;;;0.10;0.10;;;;;;;;;;4996612;28;20301;-71
2023/03/10 12:09:06;;;;;;;0.10;0.10;;;;;;;;;;5006893;28;20389;-70
2023/03/10 12:11:35;;;;;;;0.10;0.10;;;;;;;;;;4996530;28;20238;-70
2023/03/10 12:14:02;;;;;;;0.00;0.00;;;;;;;;;;5006646;28;20294;-71
2023/03/10 12:16:30;;;;;;;0.10;0.10;;;;;;;;;;4996247;28;20289;-69
2023/03/10 12:18:57;;;;;;;0.10;0.10;;;;;;;;;;5006658;28;20229;-71
2023/03/10 12:21:25;;;;;;;0.70;0.70;;;;;;;;;;4996294;28;20304;-71
2023/03/10 12:23:52;;;;;;;0.10;0.10;;;;;;;;;;5006510;28;20206;-70
2023/03/10 12:26:54;;;;;;;0.10;0.10;;;;;;;;;;4996511;28;20295;-70
2023/03/10 12:29:31;;;;;;;0.10;0.10;;;;;;;;;;5006323;28;20237;-70
2023/03/10 12:31:59;;;;;;;0.10;0.10;;;;;;;;;;4995785;28;20243;-72
2023/03/10 12:34:27;;;;;;;0.10;0.10;;;;;;;;;;5006840;28;20241;-70
2023/03/10 12:36:54;;;;;;;0.10;0.10;;;;;;;;;;4995910;28;20440;-71
2023/03/10 12:39:30;;;;;;;0.10;0.10;;;;;;;;;;5006894;28;20233;-70
2023/03/10 12:41:57;;;;;;;0.10;0.10;;;;;;;;;;4995746;28;20239;-70
2023/03/10 12:44:42;;;;;;;0.10;0.10;;;;;;;;;;5006426;28;20235;-70
2023/03/10 12:47:26;;;;;;;0.10;0.10;;;;;;;;;;4995505;28;20245;-71
2023/03/10 12:49:57;;;;;;;0.10;0.10;;;;;;;;;;4967397;28;20216;-69
2023/03/10 12:52:27;;;;;;;0.10;0.10;;;;;;;;;;4995430;28;20238;-70
2023/03/10 12:55:14;;;;;;;0.13;0.13;;;;;;;;;;5006391;28;20242;-70
2023/03/10 12:57:45;;;;;;;0.10;0.10;;;;;;;;;;4996434;28;20227;-70
2023/03/10 13:00:16;;;;;;;0.10;0.10;;;;;;;;;;4996533;28;20247;-70
2023/03/10 13:02:47;;;;;;;0.10;0.10;;;;;;;;;;5005177;28;20260;-70
2023/03/10 13:05:25;;;;;;;0.10;0.10;;;;;;;;;;4996475;28;20280;-70
2023/03/10 13:07:53;;;;;;;0.10;0.10;;;;;;;;;;5005213;28;20225;-70
2023/03/10 13:10:21;;;;;;;0.10;0.10;;;;;;;;;;4996435;28;20220;-70
2023/03/10 13:12:49;;;;;;;0.10;0.10;;;;;;;;;;5005352;28;20227;-70
2023/03/10 13:15:20;;;;;;;0.10;0.10;;;;;;;;;;4995691;28;20244;-69
2023/03/10 13:17:47;;;;;;;0.17;0.17;;;;;;;;;;5005297;28;20265;-70
2023/03/10 13:20:16;;;;;;;0.10;0.10;;;;;;;;;;4996033;28;20249;-70
2023/03/10 13:22:53;;;;;;;0.10;0.10;;;;;;;;;;5004856;28;20192;-71
2023/03/10 13:25:19;;;;;;;0.10;0.10;;;;;;;;;;4995994;28;20265;-70
2023/03/10 13:27:46;;;;;;;0.10;0.10;;;;;;;;;;5005046;28;20224;-70
2023/03/10 13:30:14;;;;;;;0.10;0.10;;;;;;;;;;4995769;28;20379;-69
2023/03/10 13:32:41;;;;;;;0.10;0.10;;;;;;;;;;5004561;28;20228;-69
2023/03/10 13:35:22;;;;;;;0.10;0.10;;;;;;;;;;5005509;28;20447;-69
2023/03/10 13:38:03;;;;;;;0.10;0.10;;;;;;;;;;5005433;28;20204;-69
2023/03/10 13:40:31;;;;;;;0.10;0.10;;;;;;;;;;4995657;28;20245;-70
2023/03/10 13:42:58;;;;;;;0.50;0.50;;;;;;;;;;5004269;28;20206;-68
2023/03/10 13:45:32;;;;;;;0.10;0.10;;;;;;;;;;4995631;28;20219;-69
2023/03/10 13:47:59;;;;;;;0.10;0.10;;;;;;;;;;5004812;28;20519;-71
2023/03/10 13:50:26;;;;;;;0.33;0.27;;;;;;;;;;4995449;28;20245;-67
2023/03/10 13:52:53;;;;;;;0.10;0.10;;;;;;;;;;5004308;28;20256;-67
2023/03/10 13:55:19;;;;;;;0.10;0.10;;;;;;;;;;4995188;28;20280;-68
2023/03/10 13:57:48;;;;;;;0.10;0.10;;;;;;;;;;5004167;28;20298;-66
2023/03/10 14:00:15;;;;;;;0.10;0.10;;;;;;;;;;4995022;28;20244;-68
2023/03/10 14:02:43;;;;;;;0.10;0.10;;;;;;;;;;5004101;28;20214;-67
2023/03/10 14:05:25;;;;;;;0.10;0.10;;;;;;;;;;5005068;28;20207;-67
2023/03/10 14:07:58;;;;;;;0.10;0.10;;;;;;;;;;5004568;28;20467;-68
2023/03/10 14:10:24;;;;;;;0.10;0.10;;;;;;;;;;4995089;28;20241;-67
2023/03/10 14:12:53;;;;;;;0.10;0.10;;;;;;;;;;5003847;28;20288;-67
2023/03/10 14:15:24;;;;;;;0.10;0.10;;;;;;;;;;4994853;28;20437;-67
2023/03/10 14:17:52;;;;;;;0.10;0.10;;;;;;;;;;5004091;28;20263;-67
2023/03/10 14:20:25;;;;;;;0.10;0.10;;;;;;;;;;4994894;28;20212;-68
2023/03/10 14:22:51;;;;;;;0.10;0.10;;;;;;;;;;5004041;28;20224;-67
2023/03/10 14:25:18;;;;;;;0.37;0.37;;;;;;;;;;4994575;28;20214;-67
2023/03/10 14:27:46;;;;;;;0.10;0.10;;;;;;;;;;5003749;28;20457;-67
2023/03/10 14:30:20;;;;;;;0.10;0.10;;;;;;;;;;5004059;28;20250;-71
2023/03/10 14:32:47;;;;;;;0.10;0.10;;;;;;;;;;5003621;28;20529;-67
2023/03/10 14:35:13;;;;;;;0.10;0.10;;;;;;;;;;4995438;28;20225;-72
2023/03/10 14:37:40;;;;;;;0.10;0.10;;;;;;;;;;5003563;28;20290;-74
2023/03/10 14:40:07;;;;;;;0.10;0.10;;;;;;;;;;5004528;28;20243;-74
2023/03/10 14:42:34;;;;;;;0.10;0.10;;;;;;;;;;4993418;28;20246;-73
2023/03/10 14:45:02;;;;;;;0.10;0.10;;;;;;;;;;5004514;28;20218;-71
2023/03/10 14:47:30;;;;;;;0.10;0.10;;;;;;;;;;4993437;28;20278;-72
2023/03/10 14:49:56;;;;;;;0.10;0.10;;;;;;;;;;5004428;28;20277;-72